Time;durP1;ratioP1;P1;durP2;ratioP2;P2;SDS_P1;SDS_P2;PMS_P1;PMS_P2;Temp;Humidity;BMP_temperature;BMP_pressure;BME280_temperature;BME280_humidity;BME280_pressure;Samples;Min_cycle;Max_cycle;Signal;HPM_P1;HPM_P2
2023/05/23 00:01:17;;;;;;;15.53;10.83;;;;;;;20.80;70.61;100175.59;4996216;28;20204;-66
2023/05/23 00:03:43;;;;;;;13.43;9.83;;;;;;;20.79;70.50;100173.94;5010625;28;20284;-66
2023/05/23 00:06:09;;;;;;;11.23;9.63;;;;;;;20.79;70.67;100173.94;4957283;28;20162;-66
2023/05/23 00:08:34;;;;;;;11.17;9.57;;;;;;;20.79;71.11;100161.63;5008667;28;20308;-65
2023/05/23 00:11:00;;;;;;;13.13;9.70;;;;;;;20.79;70.72;100153.84;5029518;28;20187;-65
2023/05/23 00:13:25;;;;;;;11.73;9.77;;;;;;;20.78;70.81;100157.94;5030131;28;20255;-66
2023/05/23 00:15:51;;;;;;;13.73;10.50;;;;;;;20.79;70.58;100158.75;5028034;28;20893;-65
2023/05/23 00:18:16;;;;;;;12.40;10.03;;;;;;;20.78;70.82;100155.06;5010209;28;20188;-65
2023/05/23 00:20:42;;;;;;;12.17;10.00;;;;;;;20.79;71.04;100165.34;5045301;28;20199;-65
2023/05/23 00:23:08;;;;;;;12.37;9.90;;;;;;;20.78;70.56;100178.00;5047837;28;20160;-66
2023/05/23 00:25:35;;;;;;;12.23;9.97;;;;;;;20.79;70.73;100173.94;4997234;28;20230;-66
2023/05/23 00:28:01;;;;;;;12.97;9.70;;;;;;;20.78;70.98;100178.00;5008764;28;20408;-66
2023/05/23 00:30:28;;;;;;;11.20;9.20;;;;;;;20.78;71.17;100194.44;5015847;28;20449;-65
2023/05/23 00:32:53;;;;;;;12.60;10.10;;;;;;;20.78;71.04;100186.63;5030175;28;20168;-66
2023/05/23 00:35:19;;;;;;;10.90;9.43;;;;;;;20.79;70.92;100187.44;5027623;28;20413;-66
2023/05/23 00:37:46;;;;;;;13.40;9.87;;;;;;;20.78;70.75;100188.69;5010775;28;20873;-66
2023/05/23 00:40:12;;;;;;;11.60;9.50;;;;;;;20.77;71.07;100184.97;5008456;28;20864;-65
2023/05/23 00:42:37;;;;;;;11.17;9.77;;;;;;;20.78;70.63;100182.94;5023874;28;20439;-66
2023/05/23 00:45:03;;;;;;;13.97;10.00;;;;;;;20.77;71.01;100193.59;5029321;28;20168;-65
2023/05/23 00:47:29;;;;;;;12.10;9.00;;;;;;;20.76;70.71;100186.22;5007887;28;20200;-65
2023/05/23 00:49:54;;;;;;;14.43;10.50;;;;;;;20.77;70.64;100187.84;5038364;28;20426;-65
2023/05/23 00:52:20;;;;;;;11.47;9.13;;;;;;;20.78;70.69;100194.44;5045270;28;20180;-65
2023/05/23 00:54:45;;;;;;;11.50;9.87;;;;;;;20.78;70.97;100188.69;5008935;28;20189;-66
2023/05/23 00:57:11;;;;;;;11.53;9.33;;;;;;;20.76;70.99;100186.22;4973991;28;20224;-65
2023/05/23 00:59:36;;;;;;;13.50;10.03;;;;;;;20.77;70.87;100192.78;5013394;28;20188;-65
2023/05/23 01:02:02;;;;;;;10.80;9.03;;;;;;;20.77;70.98;100187.03;5025319;28;20200;-66
2023/05/23 01:04:28;;;;;;;11.50;9.60;;;;;;;20.77;70.49;100198.53;5028101;28;20189;-65
2023/05/23 01:06:54;;;;;;;11.43;9.70;;;;;;;20.76;70.52;100194.81;5026516;28;20494;-65
2023/05/23 01:09:20;;;;;;;13.67;10.13;;;;;;;20.77;70.74;100198.53;4995364;28;20275;-66
2023/05/23 01:12:24;;;;;;;12.90;9.93;;;;;;;20.76;70.87;100188.25;5009550;28;20428;-66
2023/05/23 01:14:58;;;;;;;13.00;9.53;;;;;;;20.75;70.61;100190.31;4998591;28;20909;-66
2023/05/23 01:17:49;;;;;;;12.57;10.20;;;;;;;20.76;70.49;100197.69;5009337;28;20415;-66
2023/05/23 01:20:20;;;;;;;13.60;10.10;;;;;;;20.75;70.57;100193.19;5038432;28;20900;-65
2023/05/23 01:23:00;;;;;;;13.40;10.50;;;;;;;20.76;70.81;100185.38;5029677;28;20459;-65
2023/05/23 01:25:58;;;;;;;12.10;10.17;;;;;;;20.75;70.41;100184.56;5008771;28;20503;-65
2023/05/23 01:28:28;;;;;;;12.03;10.17;;;;;;;20.75;70.79;100193.19;5016954;28;21000;-65
2023/05/23 01:30:56;;;;;;;14.60;10.10;;;;;;;20.76;70.82;100194.81;5027517;28;20497;-65
2023/05/23 01:33:21;;;;;;;13.20;10.60;;;;;;;20.75;70.50;100190.31;5025260;28;20507;-65
2023/05/23 01:35:47;;;;;;;11.40;9.80;;;;;;;20.75;70.50;100200.94;5010720;28;20448;-65
2023/05/23 01:38:12;;;;;;;10.70;9.47;;;;;;;20.75;70.49;100200.94;5027723;28;20195;-65
2023/05/23 01:40:38;;;;;;;11.93;10.00;;;;;;;20.76;70.94;100196.84;5028476;28;20192;-65
2023/05/23 01:43:03;;;;;;;11.07;9.87;;;;;;;20.75;70.39;100195.22;5016168;28;20203;-65
2023/05/23 01:45:28;;;;;;;12.40;9.37;;;;;;;20.75;70.60;100200.94;5024082;28;20192;-65
2023/05/23 01:47:55;;;;;;;11.07;9.87;;;;;;;20.75;70.48;100200.94;5024527;28;20177;-65
2023/05/23 01:50:20;;;;;;;11.73;9.33;;;;;;;20.74;70.64;100200.13;5040923;28;20188;-65
2023/05/23 01:52:46;;;;;;;12.00;10.33;;;;;;;20.76;70.68;100199.72;4999090;28;20916;-65
2023/05/23 01:55:13;;;;;;;12.23;10.20;;;;;;;20.74;70.31;100211.63;5018966;28;20550;-65
2023/05/23 01:57:38;;;;;;;11.13;9.50;;;;;;;20.75;70.72;100209.56;5029066;28;20255;-65
2023/05/23 02:00:05;;;;;;;14.13;11.00;;;;;;;20.74;70.48;100214.47;5027420;28;20414;-65
2023/05/23 02:02:32;;;;;;;11.43;10.07;;;;;;;20.75;70.32;100206.69;5009436;28;20755;-65
2023/05/23 02:04:58;;;;;;;13.27;9.63;;;;;;;20.73;70.93;100209.94;5010924;28;20440;-65
2023/05/23 02:07:23;;;;;;;12.33;10.30;;;;;;;20.73;70.54;100206.28;5007466;28;20464;-66
2023/05/23 02:09:49;;;;;;;12.20;9.37;;;;;;;20.73;70.64;100215.69;5009347;28;20212;-63
2023/05/23 02:12:14;;;;;;;11.47;9.83;;;;;;;20.73;70.42;100215.69;5008285;28;20166;-63
2023/05/23 02:14:41;;;;;;;12.37;10.37;;;;;;;20.73;70.18;100227.16;5010448;28;20635;-63
2023/05/23 02:17:08;;;;;;;11.60;10.07;;;;;;;20.73;70.62;100220.63;5008714;28;20181;-63
2023/05/23 02:19:34;;;;;;;12.43;10.03;;;;;;;20.73;70.69;100227.16;5020602;28;20445;-63
2023/05/23 02:22:00;;;;;;;13.17;10.80;;;;;;;20.72;70.45;100225.53;5037463;28;20597;-63
2023/05/23 02:24:26;;;;;;;10.70;9.40;;;;;;;20.72;70.54;100222.66;5019017;28;20216;-63
2023/05/23 02:26:51;;;;;;;11.30;9.50;;;;;;;20.72;70.27;100216.09;5008584;28;20609;-63
2023/05/23 02:29:17;;;;;;;12.47;11.03;;;;;;;20.72;70.19;100218.97;5011427;28;20173;-62
2023/05/23 02:31:43;;;;;;;12.47;9.83;;;;;;;20.70;70.38;100210.75;5007363;28;20516;-63
2023/05/23 02:34:08;;;;;;;12.87;10.57;;;;;;;20.71;70.52;100215.28;5010770;28;20193;-63
2023/05/23 02:36:35;;;;;;;12.23;9.90;;;;;;;20.72;70.71;100213.25;4990421;28;20180;-63
2023/05/23 02:39:01;;;;;;;12.87;10.10;;;;;;;20.72;70.41;100225.53;5008192;28;20189;-63
2023/05/23 02:41:27;;;;;;;11.90;10.10;;;;;;;20.71;70.68;100223.88;5007250;28;20982;-63
2023/05/23 02:43:53;;;;;;;10.87;9.27;;;;;;;20.71;70.35;100217.31;5013051;28;20443;-63
2023/05/23 02:46:18;;;;;;;11.97;10.37;;;;;;;20.72;70.35;100227.59;5025640;28;20211;-63
2023/05/23 02:48:44;;;;;;;11.23;9.73;;;;;;;20.71;70.24;100229.63;5027990;28;20427;-63
2023/05/23 02:51:09;;;;;;;13.00;9.57;;;;;;;20.71;70.34;100235.34;5049418;28;20564;-63
2023/05/23 02:53:35;;;;;;;15.03;10.27;;;;;;;20.71;70.04;100237.38;5039438;28;20217;-63
2023/05/23 02:56:00;;;;;;;11.70;9.70;;;;;;;20.71;70.32;100240.25;5011440;28;21025;-63
2023/05/23 02:58:26;;;;;;;13.90;9.63;;;;;;;20.72;70.48;100239.06;5010545;28;20185;-63
2023/05/23 03:00:51;;;;;;;12.83;10.10;;;;;;;20.70;70.40;100239.44;5026273;28;20204;-63
2023/05/23 03:03:17;;;;;;;13.03;10.03;;;;;;;20.70;70.49;100235.75;5009710;28;20196;-63
2023/05/23 03:05:42;;;;;;;14.50;10.57;;;;;;;20.69;70.50;100243.53;5011260;28;20185;-63
2023/05/23 03:08:08;;;;;;;12.87;10.60;;;;;;;20.70;70.51;100232.88;5012722;28;20259;-63
2023/05/23 03:10:33;;;;;;;11.67;10.40;;;;;;;20.70;70.01;100238.63;5010721;28;20165;-63
2023/05/23 03:12:59;;;;;;;10.33;9.10;;;;;;;20.69;70.26;100237.81;5010459;28;20184;-63
2023/05/23 03:15:24;;;;;;;12.87;10.77;;;;;;;20.69;70.50;100243.53;5018988;28;20192;-63
2023/05/23 03:17:50;;;;;;;13.87;10.60;;;;;;;20.70;70.26;100239.44;5031297;28;20169;-63
2023/05/23 03:20:15;;;;;;;12.30;10.33;;;;;;;20.69;70.49;100237.81;5024776;28;20474;-63
2023/05/23 03:22:42;;;;;;;12.27;9.77;;;;;;;20.69;70.10;100236.97;5011771;28;20231;-63
2023/05/23 03:25:08;;;;;;;11.23;8.93;;;;;;;20.69;70.55;100243.53;5013464;28;20196;-63
2023/05/23 03:27:33;;;;;;;11.13;9.63;;;;;;;20.68;70.39;100235.31;5015979;28;20489;-63
2023/05/23 03:29:59;;;;;;;13.07;9.97;;;;;;;20.69;70.60;100236.97;5011166;28;20450;-63
2023/05/23 03:32:24;;;;;;;11.30;10.10;;;;;;;20.69;70.35;100237.81;5030943;28;20188;-65
2023/05/23 03:34:50;;;;;;;11.43;10.23;;;;;;;20.68;70.59;100241.88;5030955;28;20173;-64
2023/05/23 03:37:15;;;;;;;11.70;10.10;;;;;;;20.68;70.63;100244.75;5015314;28;20267;-64
2023/05/23 03:39:41;;;;;;;11.43;9.80;;;;;;;20.68;70.66;100244.75;5019150;28;20606;-64
2023/05/23 03:42:06;;;;;;;11.90;9.03;;;;;;;20.69;70.24;100248.44;5028464;28;20562;-65
2023/05/23 03:44:31;;;;;;;12.63;9.83;;;;;;;20.69;70.16;100251.31;5029295;28;20605;-64
2023/05/23 03:46:57;;;;;;;12.43;10.63;;;;;;;20.68;70.22;100250.47;5028822;28;20168;-64
2023/05/23 03:49:22;;;;;;;12.00;9.93;;;;;;;20.68;70.59;100259.09;5031650;28;20187;-64
2023/05/23 03:51:48;;;;;;;12.23;9.70;;;;;;;20.68;70.55;100256.22;5048099;28;20164;-64
2023/05/23 03:54:13;;;;;;;11.83;9.97;;;;;;;20.67;70.32;100251.72;5026705;28;20928;-64
2023/05/23 03:56:39;;;;;;;10.50;8.93;;;;;;;20.68;70.62;100255.41;5011124;28;20185;-64
2023/05/23 03:59:04;;;;;;;14.13;9.73;;;;;;;20.68;70.31;100259.09;5029247;28;20227;-64
2023/05/23 04:01:30;;;;;;;13.90;10.90;;;;;;;20.68;70.07;100258.28;5028611;28;20197;-64
2023/05/23 04:03:55;;;;;;;11.27;10.07;;;;;;;20.68;70.30;100255.41;5025490;28;20238;-64
2023/05/23 04:06:22;;;;;;;11.60;9.70;;;;;;;20.67;70.40;100259.50;5028298;28;20169;-64
2023/05/23 04:08:47;;;;;;;12.40;10.33;;;;;;;20.67;70.70;100262.38;5026392;28;20290;-64
2023/05/23 04:11:13;;;;;;;12.27;10.30;;;;;;;20.68;70.67;100258.28;5027597;28;20400;-64
2023/05/23 04:13:38;;;;;;;12.27;10.20;;;;;;;20.69;70.51;100265.66;5015495;28;20251;-64
2023/05/23 04:16:04;;;;;;;10.60;9.33;;;;;;;20.67;70.38;100263.19;5009662;28;20176;-64
2023/05/23 04:18:32;;;;;;;12.23;10.10;;;;;;;20.68;70.38;100264.03;5011280;28;20189;-64
2023/05/23 04:20:58;;;;;;;12.60;9.73;;;;;;;20.68;70.63;100264.81;5043496;28;20473;-64
2023/05/23 04:23:23;;;;;;;11.83;10.10;;;;;;;20.67;70.41;100266.06;5049990;28;20495;-64
2023/05/23 04:25:50;;;;;;;12.07;9.87;;;;;;;20.68;70.32;100269.75;5043769;28;20853;-64
2023/05/23 04:28:16;;;;;;;11.67;9.93;;;;;;;20.67;70.51;100271.78;5015828;28;20838;-64
2023/05/23 04:30:42;;;;;;;11.20;9.57;;;;;;;20.67;70.72;100273.84;5012220;28;20530;-64
2023/05/23 04:33:08;;;;;;;12.80;9.93;;;;;;;20.67;70.79;100265.25;5029203;28;20506;-64
2023/05/23 04:35:37;;;;;;;11.67;10.20;;;;;;;20.67;70.74;100268.91;5044216;28;20423;-64
2023/05/23 04:38:03;;;;;;;15.67;11.07;;;;;;;20.67;70.68;100270.97;5022902;28;20428;-64
2023/05/23 04:40:29;;;;;;;13.10;10.20;;;;;;;20.67;70.87;100280.41;5028080;28;20450;-64
2023/05/23 04:42:55;;;;;;;13.47;10.60;;;;;;;20.67;70.52;100277.53;5028256;28;20423;-64
2023/05/23 04:45:21;;;;;;;13.83;10.60;;;;;;;20.68;70.80;100281.22;5011283;28;20842;-64
2023/05/23 04:47:46;;;;;;;13.17;9.90;;;;;;;20.66;70.99;100284.50;5009690;28;20413;-65
2023/05/23 04:50:13;;;;;;;12.00;10.20;;;;;;;20.68;70.52;100295.56;4997763;28;20268;-65
2023/05/23 04:52:39;;;;;;;12.57;10.27;;;;;;;20.67;70.81;100289.00;5043196;28;20216;-65
2023/05/23 04:55:05;;;;;;;11.37;10.17;;;;;;;20.68;70.75;100304.19;5027335;28;20451;-65
2023/05/23 04:57:31;;;;;;;11.57;9.83;;;;;;;20.68;71.06;100304.19;5027853;28;20828;-65
2023/05/23 04:59:56;;;;;;;13.90;10.77;;;;;;;20.67;70.64;100309.09;5011345;28;20415;-65
2023/05/23 05:02:22;;;;;;;12.00;9.97;;;;;;;20.66;71.03;100301.69;5027593;28;20188;-63
2023/05/23 05:04:47;;;;;;;13.30;10.93;;;;;;;20.67;70.84;100308.28;5009277;28;21005;-63
2023/05/23 05:07:13;;;;;;;14.17;10.87;;;;;;;20.66;70.83;100306.59;5007493;28;20987;-63
2023/05/23 05:09:38;;;;;;;13.40;10.60;;;;;;;20.66;71.04;100304.56;5009064;28;20625;-64
2023/05/23 05:12:04;;;;;;;12.80;10.00;;;;;;;20.67;70.98;100314.81;5010916;28;20225;-64
2023/05/23 05:14:29;;;;;;;12.50;9.70;;;;;;;20.66;70.97;100318.09;5011053;28;20204;-64
2023/05/23 05:16:56;;;;;;;14.20;11.30;;;;;;;20.66;70.80;100312.34;5007408;28;20244;-65
2023/05/23 05:19:22;;;;;;;13.53;10.90;;;;;;;20.66;71.20;100321.78;5018972;28;20660;-65
2023/05/23 05:21:48;;;;;;;12.70;10.63;;;;;;;20.66;71.13;100321.78;5047810;28;21149;-64
2023/05/23 05:24:14;;;;;;;13.93;10.83;;;;;;;20.67;70.80;100316.88;5046542;28;20414;-64
2023/05/23 05:26:40;;;;;;;12.60;10.20;;;;;;;20.66;70.94;100323.81;5041667;28;20187;-64
2023/05/23 05:29:05;;;;;;;13.83;10.47;;;;;;;20.67;71.08;100322.63;5008355;28;21131;-64
2023/05/23 05:31:31;;;;;;;13.47;10.20;;;;;;;20.67;70.67;100319.75;4989831;28;20157;-64
2023/05/23 05:33:57;;;;;;;13.73;10.27;;;;;;;20.66;71.11;100323.81;5013120;28;20176;-64
2023/05/23 05:36:22;;;;;;;14.00;11.00;;;;;;;20.66;70.94;100324.66;5025614;28;20921;-65
2023/05/23 05:38:47;;;;;;;14.50;10.90;;;;;;;20.66;71.04;100323.81;5022700;28;20172;-65
2023/05/23 05:41:13;;;;;;;13.97;11.87;;;;;;;20.66;71.03;100309.47;5007643;28;20197;-65
2023/05/23 05:43:38;;;;;;;13.63;11.20;;;;;;;20.66;70.88;100316.03;5024023;28;20172;-65
2023/05/23 05:46:04;;;;;;;13.90;11.10;;;;;;;20.67;70.99;100320.56;5013205;28;20185;-65
2023/05/23 05:48:29;;;;;;;12.60;11.30;;;;;;;20.67;71.25;100320.56;5021534;28;20195;-65
2023/05/23 05:50:55;;;;;;;12.93;10.93;;;;;;;20.67;71.19;100317.69;5033544;28;20538;-65
2023/05/23 05:53:20;;;;;;;13.60;10.90;;;;;;;20.68;71.11;100318.53;5007135;28;20613;-65
2023/05/23 05:55:46;;;;;;;12.90;10.63;;;;;;;20.67;70.85;100320.56;5006977;28;20177;-65
2023/05/23 05:58:11;;;;;;;13.93;11.40;;;;;;;20.67;71.08;100323.44;5008042;28;20160;-65
2023/05/23 06:00:40;;;;;;;15.10;11.60;;;;;;;20.67;70.95;100319.75;5017060;28;20204;-65
2023/05/23 06:03:07;;;;;;;14.40;10.63;;;;;;;20.67;71.32;100322.63;5028175;28;20162;-65
2023/05/23 06:05:33;;;;;;;15.13;12.67;;;;;;;20.66;70.95;100324.66;5012147;28;20941;-65
2023/05/23 06:07:58;;;;;;;16.13;11.57;;;;;;;20.67;71.25;100325.50;5009329;28;20471;-65
2023/05/23 06:10:24;;;;;;;15.17;12.40;;;;;;;20.67;70.89;100320.56;5008392;28;20178;-65
2023/05/23 06:12:49;;;;;;;16.30;12.00;;;;;;;20.66;71.18;100330.41;5016837;28;20188;-65
2023/05/23 06:15:15;;;;;;;15.30;11.97;;;;;;;20.67;71.10;100334.09;5025580;28;20172;-65
2023/05/23 06:17:41;;;;;;;16.40;12.73;;;;;;;20.66;71.15;100330.41;5009094;28;20196;-65
2023/05/23 06:20:07;;;;;;;15.10;12.70;;;;;;;20.66;71.29;100335.28;5020480;28;20179;-65
2023/05/23 06:22:32;;;;;;;15.03;12.73;;;;;;;20.65;70.91;100339.38;5030454;28;20156;-65
2023/05/23 06:24:58;;;;;;;18.10;13.63;;;;;;;20.65;71.11;100348.81;5003137;28;20189;-65
2023/05/23 06:27:23;;;;;;;15.33;13.10;;;;;;;20.65;71.33;100334.47;5011170;28;20173;-65
2023/05/23 06:29:49;;;;;;;16.10;12.60;;;;;;;20.65;71.40;100351.69;5016385;28;20185;-65
2023/05/23 06:32:14;;;;;;;17.37;12.70;;;;;;;20.66;71.23;100349.63;5013296;28;20181;-64
2023/05/23 06:34:40;;;;;;;15.63;12.83;;;;;;;20.65;71.32;100354.56;5014646;28;20200;-65
2023/05/23 06:37:05;;;;;;;17.23;13.80;;;;;;;20.66;71.54;100359.09;5027974;28;20188;-64
2023/05/23 06:39:31;;;;;;;18.73;13.20;;;;;;;20.67;71.52;100351.31;5034213;28;20160;-65
2023/05/23 06:41:56;;;;;;;17.33;13.47;;;;;;;20.68;71.37;100355.81;5030764;28;20578;-64
2023/05/23 06:44:22;;;;;;;18.40;13.83;;;;;;;20.68;71.46;100361.56;5034636;28;20687;-65
2023/05/23 06:46:47;;;;;;;19.93;14.60;;;;;;;20.68;71.26;100368.09;5019199;28;20207;-65
2023/05/23 06:49:13;;;;;;;19.37;14.63;;;;;;;20.68;71.24;100362.38;5021390;28;20675;-65
2023/05/23 06:51:39;;;;;;;18.83;14.83;;;;;;;20.68;71.42;100373.03;5038509;28;20185;-65
2023/05/23 06:54:04;;;;;;;18.07;14.80;;;;;;;20.67;71.69;100375.06;5029224;28;21080;-64
2023/05/23 06:56:30;;;;;;;18.97;14.70;;;;;;;20.67;71.38;100383.69;5036164;28;20234;-65
2023/05/23 06:58:55;;;;;;;21.40;13.90;;;;;;;20.67;71.67;100394.34;5035598;28;20169;-64
2023/05/23 07:01:21;;;;;;;17.87;14.30;;;;;;;20.67;71.53;100392.28;5012889;28;20255;-64
2023/05/23 07:03:46;;;;;;;18.73;14.60;;;;;;;20.67;71.38;100397.22;5027267;28;20252;-65
2023/05/23 07:06:12;;;;;;;16.80;14.13;;;;;;;20.67;71.34;100403.75;5034455;28;20164;-65
2023/05/23 07:08:37;;;;;;;20.10;15.30;;;;;;;20.67;71.48;100406.63;5033984;28;20224;-64
2023/05/23 07:11:03;;;;;;;19.87;14.80;;;;;;;20.68;71.47;100407.47;5002673;28;20848;-64
2023/05/23 07:13:29;;;;;;;19.67;15.80;;;;;;;20.69;71.52;100404.22;4961863;28;20170;-64
2023/05/23 07:15:54;;;;;;;17.50;14.07;;;;;;;20.69;71.62;100406.25;4963214;28;20188;-65
2023/05/23 07:18:20;;;;;;;20.00;16.80;;;;;;;20.69;71.41;100409.94;4966004;28;20215;-64
2023/05/23 07:20:45;;;;;;;20.93;15.87;;;;;;;20.70;71.69;100405.00;5031368;28;20196;-64
2023/05/23 07:23:11;;;;;;;17.77;14.87;;;;;;;20.69;71.54;100407.06;5016669;28;20160;-65
2023/05/23 07:25:39;;;;;;;21.77;16.20;;;;;;;20.70;71.35;100410.75;4965081;28;20193;-65
2023/05/23 07:28:04;;;;;;;20.40;16.40;;;;;;;20.72;71.49;100400.53;4999303;28;20158;-65
2023/05/23 07:30:29;;;;;;;22.13;16.93;;;;;;;20.71;71.38;100398.88;5027547;28;20446;-65
2023/05/23 07:32:55;;;;;;;21.13;17.63;;;;;;;20.72;71.46;100405.47;5008949;28;20212;-65
2023/05/23 07:35:24;;;;;;;19.20;15.67;;;;;;;20.72;71.30;100409.13;4998006;28;20172;-65
2023/05/23 07:37:53;;;;;;;22.20;17.30;;;;;;;20.73;71.39;100404.25;5014449;28;20173;-64
2023/05/23 07:40:18;;;;;;;22.37;16.50;;;;;;;20.71;71.70;100400.91;5013751;28;20867;-65
2023/05/23 07:42:44;;;;;;;21.37;16.67;;;;;;;20.70;71.66;100400.13;5006726;28;20445;-65
2023/05/23 07:45:10;;;;;;;19.23;16.27;;;;;;;20.70;71.85;100405.84;4959161;28;20820;-65
2023/05/23 07:47:35;;;;;;;19.43;15.60;;;;;;;20.68;71.47;100402.53;4976606;28;20173;-65
2023/05/23 07:50:01;;;;;;;20.93;16.47;;;;;;;20.69;71.74;100414.84;5012906;28;20189;-65
2023/05/23 07:52:28;;;;;;;22.67;16.60;;;;;;;20.71;71.68;100413.25;5032553;28;20481;-65
2023/05/23 07:54:53;;;;;;;22.87;17.10;;;;;;;20.69;72.24;100412.81;5002838;28;20645;-65
2023/05/23 07:57:19;;;;;;;21.00;16.03;;;;;;;20.70;71.57;100420.19;5007208;28;20436;-65
2023/05/23 07:59:44;;;;;;;20.07;16.70;;;;;;;20.68;71.34;100421.81;5012549;28;20177;-65
2023/05/23 08:02:10;;;;;;;20.17;16.33;;;;;;;20.67;71.34;100420.16;4980408;28;20212;-65
2023/05/23 08:04:35;;;;;;;17.93;14.60;;;;;;;20.67;71.43;100435.31;4975381;28;20169;-65
2023/05/23 08:07:01;;;;;;;20.17;15.83;;;;;;;20.66;71.40;100430.81;4994183;28;20232;-65
2023/05/23 08:09:26;;;;;;;19.30;16.33;;;;;;;20.66;71.54;100427.94;5010314;28;20193;-65
2023/05/23 08:11:52;;;;;;;20.10;16.37;;;;;;;20.66;71.23;100445.16;5012390;28;20521;-65
2023/05/23 08:14:17;;;;;;;21.47;16.43;;;;;;;20.65;71.51;100443.50;5010639;28;20165;-65
2023/05/23 08:16:42;;;;;;;21.00;16.50;;;;;;;20.66;71.32;100442.28;5016585;28;20185;-65
2023/05/23 08:19:08;;;;;;;22.70;17.20;;;;;;;20.64;71.44;100447.59;5032605;28;20172;-65
2023/05/23 08:21:35;;;;;;;21.40;16.60;;;;;;;20.65;71.06;100449.25;5044927;28;20204;-65
2023/05/23 08:24:00;;;;;;;21.93;16.43;;;;;;;20.65;70.92;100454.13;5010535;28;20310;-65
2023/05/23 08:26:26;;;;;;;20.33;16.30;;;;;;;20.65;70.83;100452.09;5010589;28;20413;-65
2023/05/23 08:28:52;;;;;;;21.67;16.20;;;;;;;20.66;70.91;100459.50;5010820;28;20219;-65
2023/05/23 08:31:17;;;;;;;17.73;15.17;;;;;;;20.65;71.03;100460.72;5013516;28;20428;-65
2023/05/23 08:33:43;;;;;;;18.63;16.07;;;;;;;20.65;70.68;100466.44;5011125;28;20657;-65
2023/05/23 08:36:09;;;;;;;18.47;14.20;;;;;;;20.65;70.70;100457.84;4994992;28;20188;-65
2023/05/23 08:38:34;;;;;;;19.43;16.13;;;;;;;20.64;70.39;100461.94;5009079;28;20578;-65
2023/05/23 08:41:00;;;;;;;19.33;15.13;;;;;;;20.64;70.93;100466.84;5001692;28;20889;-65
2023/05/23 08:43:26;;;;;;;18.23;15.80;;;;;;;20.64;70.77;100466.84;5026795;28;20467;-65
2023/05/23 08:45:51;;;;;;;20.50;15.47;;;;;;;20.63;70.59;100471.75;5027586;28;20519;-65
2023/05/23 08:48:18;;;;;;;17.57;14.80;;;;;;;20.64;70.47;100473.41;5029498;28;20228;-65
2023/05/23 08:50:46;;;;;;;19.40;16.03;;;;;;;20.64;70.47;100472.56;5045641;28;20175;-65
2023/05/23 08:53:18;;;;;;;17.77;14.17;;;;;;;20.63;70.32;100476.66;5012201;28;20454;-65
2023/05/23 08:55:43;;;;;;;20.70;15.67;;;;;;;20.63;70.30;100485.28;5031876;28;20431;-65
2023/05/23 08:58:09;;;;;;;18.03;14.77;;;;;;;20.62;70.57;100475.84;5032248;28;20427;-65
2023/05/23 09:00:34;;;;;;;18.60;14.73;;;;;;;20.62;70.37;100480.75;5029389;28;20200;-65
2023/05/23 09:03:00;;;;;;;19.93;15.90;;;;;;;20.62;70.32;100475.84;5029436;28;20184;-65
2023/05/23 09:05:25;;;;;;;17.53;14.43;;;;;;;20.62;69.90;100483.63;5031740;28;20179;-65
2023/05/23 09:07:51;;;;;;;19.77;14.30;;;;;;;20.62;70.45;100487.31;5012908;28;20329;-65
2023/05/23 09:10:18;;;;;;;18.10;14.27;;;;;;;20.63;69.93;100493.88;5031259;28;20172;-65
2023/05/23 09:12:44;;;;;;;18.23;13.97;;;;;;;20.63;69.77;100491.81;5019643;28;20478;-65
2023/05/23 09:15:10;;;;;;;22.90;15.60;;;;;;;20.62;69.99;100490.19;5013070;28;20428;-65
2023/05/23 09:17:36;;;;;;;18.20;14.20;;;;;;;20.62;70.05;100490.19;5014292;28;20185;-65
2023/05/23 09:20:13;;;;;;;19.53;14.00;;;;;;;20.61;70.07;100481.94;5031425;28;20426;-65
2023/05/23 09:22:38;;;;;;;18.97;13.57;;;;;;;20.62;69.77;100490.19;5050885;28;20414;-65
2023/05/23 09:25:04;;;;;;;18.20;14.97;;;;;;;20.62;69.64;100495.91;5028602;28;20606;-65
2023/05/23 09:27:30;;;;;;;16.37;13.73;;;;;;;20.62;69.76;100489.38;5013868;28;20333;-65
2023/05/23 09:29:55;;;;;;;18.10;14.10;;;;;;;20.63;69.74;100491.81;5026073;28;20435;-65
2023/05/23 09:32:21;;;;;;;19.23;13.70;;;;;;;20.62;69.60;100490.19;5018920;28;20161;-65
2023/05/23 09:34:56;;;;;;;18.77;14.30;;;;;;;20.63;69.39;100486.09;5032589;28;20171;-64
2023/05/23 09:37:24;;;;;;;16.53;13.40;;;;;;;20.63;69.73;100491.81;5015809;28;20189;-64
2023/05/23 09:39:50;;;;;;;15.80;12.70;;;;;;;20.63;69.68;100496.75;5010642;28;20413;-65
2023/05/23 09:42:22;;;;;;;14.07;12.23;;;;;;;20.63;69.83;100497.56;5015056;28;20477;-64
2023/05/23 09:44:48;;;;;;;16.60;13.60;;;;;;;20.63;69.67;100503.28;5028670;28;20267;-65
2023/05/23 09:47:15;;;;;;;14.40;12.50;;;;;;;20.62;69.66;100501.66;5025519;28;20435;-65
2023/05/23 09:49:42;;;;;;;18.40;13.57;;;;;;;20.63;69.55;100497.56;5023607;28;20493;-65
2023/05/23 09:52:07;;;;;;;17.10;12.87;;;;;;;20.63;69.54;100496.75;5013043;28;20454;-64
2023/05/23 09:54:33;;;;;;;17.73;13.47;;;;;;;20.62;69.20;100495.91;5030002;28;20416;-64
2023/05/23 09:56:59;;;;;;;15.40;13.20;;;;;;;20.63;69.64;100496.75;5010421;28;20173;-65
2023/05/23 09:59:30;;;;;;;16.20;13.77;;;;;;;20.63;69.37;100500.44;5010431;28;20219;-65
2023/05/23 10:01:56;;;;;;;15.97;13.30;;;;;;;20.64;69.32;100498.41;5033772;28;20481;-65
2023/05/23 10:04:24;;;;;;;14.50;12.07;;;;;;;20.63;69.66;100503.28;5000398;28;20525;-65
2023/05/23 10:06:55;;;;;;;16.30;12.30;;;;;;;20.62;69.17;100507.38;5021548;28;20194;-64
2023/05/23 10:09:22;;;;;;;18.20;12.57;;;;;;;20.62;69.17;100510.25;5011602;28;20443;-64
2023/05/23 10:12:06;;;;;;;15.90;13.37;;;;;;;20.62;69.48;100507.38;5000767;28;20430;-64
2023/05/23 10:14:31;;;;;;;14.87;12.30;;;;;;;20.62;69.25;100510.25;5032648;28;20809;-64
2023/05/23 10:17:09;;;;;;;14.30;11.40;;;;;;;20.61;68.99;100508.59;5033024;28;20411;-65
2023/05/23 10:19:46;;;;;;;14.50;11.87;;;;;;;20.61;69.20;100505.75;5039858;28;20181;-64
2023/05/23 10:22:12;;;;;;;14.90;11.50;;;;;;;20.62;69.29;100507.38;5053976;28;20463;-65
2023/05/23 10:24:37;;;;;;;14.70;11.67;;;;;;;20.61;69.02;100505.75;5036000;28;20438;-65
2023/05/23 10:27:03;;;;;;;15.37;11.77;;;;;;;20.61;69.16;100502.88;5032370;28;20189;-65
2023/05/23 10:29:29;;;;;;;16.00;11.60;;;;;;;20.61;68.98;100499.16;5030030;28;20196;-65
2023/05/23 10:31:55;;;;;;;13.93;12.43;;;;;;;20.60;68.91;100506.97;5017415;28;20223;-65
2023/05/23 10:34:40;;;;;;;14.03;11.37;;;;;;;20.60;69.15;100509.84;5012735;28;20176;-64
2023/05/23 10:37:06;;;;;;;14.70;11.43;;;;;;;20.61;69.06;100516.38;5012671;28;20434;-65
2023/05/23 10:39:53;;;;;;;14.30;11.97;;;;;;;20.61;69.08;100513.50;5015611;28;20452;-64
2023/05/23 10:43:01;;;;;;;15.67;12.10;;;;;;;20.60;68.93;100512.69;5019304;28;20462;-65
2023/05/23 10:45:27;;;;;;;14.97;11.67;;;;;;;20.60;68.80;100515.56;4952923;29;20449;-65
2023/05/23 10:47:52;;;;;;;15.07;11.07;;;;;;;20.61;68.64;100513.50;5009867;28;20430;-65
2023/05/23 10:50:32;;;;;;;13.00;11.13;;;;;;;20.61;68.89;100520.09;5040133;28;20206;-64
2023/05/23 10:53:03;;;;;;;14.30;11.60;;;;;;;20.62;68.70;100518.06;5055001;28;20175;-65
2023/05/23 10:55:33;;;;;;;13.43;10.77;;;;;;;20.63;68.85;100525.44;4998890;28;20457;-64
2023/05/23 10:58:21;;;;;;;12.90;10.63;;;;;;;20.62;68.60;100521.72;5013871;28;20412;-64
2023/05/23 11:00:54;;;;;;;13.47;10.80;;;;;;;20.62;68.71;100518.84;5012645;28;20836;-65
2023/05/23 11:03:34;;;;;;;13.00;10.90;;;;;;;20.61;68.54;100522.94;5016998;28;20906;-65
2023/05/23 11:06:01;;;;;;;13.83;11.10;;;;;;;20.62;68.52;100529.53;5030264;28;20799;-64
2023/05/23 11:08:28;;;;;;;12.53;10.57;;;;;;;20.61;68.79;100522.94;5046458;28;20519;-65
2023/05/23 11:10:58;;;;;;;12.40;10.87;;;;;;;20.61;68.29;100525.81;4997160;28;20428;-64